PAL453 RPLL-RPMR
Flight info
| Callsign | PAL453 |
|---|---|
| Flight time | 1h 30m |
| Altitude | 37000 |
| Route | VERDE A461 SAJ W3 IOO B472 COT W19 MELBY MELBY3R |
| Aircraft | B77W/H-SDE1E2E3FGHIJ2J3J4J5M1RWXY/LB1D1 |
Departure
| Time | 2026-04-26 08:54 |
|---|---|
| Airport | Ninoy Aquino International Airport (RPLL) |
Arrival
| Time | 2026-04-26 10:25 |
|---|---|
| Airport | General Santos International Airport (RPMR) |
| Time | Latitude | Longitude | Altitude | Speed | Heading |
|---|---|---|---|---|---|
| 2026-04-26 08:28 | 14.51034 | 121.01415 | 73 ft | 0 kts | 225° |
| 2026-04-26 08:38 | 14.51041 | 121.01423 | 73 ft | 3 kts | 216° |
| 2026-04-26 08:38 | 14.51058 | 121.01433 | 63 ft | 3 kts | 199° |
| 2026-04-26 08:38 | 14.51078 | 121.01437 | 63 ft | 3 kts | 181° |
| 2026-04-26 08:38 | 14.51097 | 121.01436 | 67 ft | 3 kts | 163° |
| 2026-04-26 08:39 | 14.51116 | 121.01428 | 68 ft | 3 kts | 146° |
| 2026-04-26 08:39 | 14.51123 | 121.01422 | 65 ft | 0 kts | 137° |
| 2026-04-26 08:43 | 14.51092 | 121.01452 | 63 ft | 16 kts | 137° |
| 2026-04-26 08:43 | 14.50979 | 121.01568 | 65 ft | 23 kts | 132° |
| 2026-04-26 08:43 | 14.50898 | 121.01658 | 64 ft | 16 kts | 143° |
| 2026-04-26 08:43 | 14.50847 | 121.01639 | 66 ft | 8 kts | 239° |
| 2026-04-26 08:44 | 14.50813 | 121.01578 | 65 ft | 13 kts | 239° |
| 2026-04-26 08:44 | 14.50762 | 121.01488 | 67 ft | 15 kts | 240° |
| 2026-04-26 08:44 | 14.50711 | 121.01397 | 63 ft | 15 kts | 240° |
| 2026-04-26 08:44 | 14.50661 | 121.01305 | 63 ft | 15 kts | 242° |
| 2026-04-26 08:45 | 14.50610 | 121.01213 | 63 ft | 15 kts | 239° |
| 2026-04-26 08:45 | 14.50558 | 121.01121 | 65 ft | 15 kts | 239° |
| 2026-04-26 08:45 | 14.50506 | 121.01029 | 63 ft | 15 kts | 241° |
| 2026-04-26 08:45 | 14.50456 | 121.00937 | 66 ft | 15 kts | 240° |
| 2026-04-26 08:46 | 14.50398 | 121.00833 | 65 ft | 21 kts | 240° |
| 2026-04-26 08:46 | 14.50315 | 121.00683 | 66 ft | 25 kts | 240° |
| 2026-04-26 08:46 | 14.50240 | 121.00547 | 63 ft | 20 kts | 240° |
| 2026-04-26 08:46 | 14.50239 | 121.00546 | 63 ft | 20 kts | 240° |
| 2026-04-26 08:47 | 14.50218 | 121.00508 | 64 ft | 20 kts | 240° |
| 2026-04-26 08:47 | 14.50150 | 121.00387 | 62 ft | 20 kts | 239° |
| 2026-04-26 08:47 | 14.50080 | 121.00264 | 64 ft | 20 kts | 239° |
| 2026-04-26 08:48 | 14.50020 | 121.00154 | 66 ft | 13 kts | 240° |
| 2026-04-26 08:48 | 14.49992 | 121.00103 | 63 ft | 7 kts | 240° |
| 2026-04-26 08:48 | 14.49969 | 121.00062 | 69 ft | 7 kts | 240° |
| 2026-04-26 08:48 | 14.49952 | 121.00031 | 63 ft | 0 kts | 240° |
| 2026-04-26 08:50 | 14.49949 | 121.00026 | 63 ft | 3 kts | 240° |
| 2026-04-26 08:50 | 14.49937 | 121.00003 | 63 ft | 4 kts | 240° |
| 2026-04-26 08:50 | 14.49919 | 120.99978 | 66 ft | 5 kts | 225° |
| 2026-04-26 08:50 | 14.49888 | 120.99968 | 66 ft | 2 kts | 180° |
| 2026-04-26 08:51 | 14.49887 | 120.99968 | 66 ft | 0 kts | 179° |
| 2026-04-26 08:51 | 14.49869 | 120.99971 | 66 ft | 7 kts | 168° |
| 2026-04-26 08:52 | 14.49807 | 121.00036 | 67 ft | 18 kts | 88° |
| 2026-04-26 08:52 | 14.49851 | 121.00126 | 66 ft | 0 kts | 60° |
| 2026-04-26 08:53 | 14.49859 | 121.00139 | 63 ft | 13 kts | 60° |
| 2026-04-26 08:54 | 14.50048 | 121.00482 | 63 ft | 99 kts | 60° |
| 2026-04-26 08:54 | 14.50535 | 121.01355 | 94 ft | 175 kts | 63° |
| 2026-04-26 08:54 | 14.51153 | 121.02469 | 880 ft | 180 kts | 61° |
| 2026-04-26 08:54 | 14.51765 | 121.03584 | 1793 ft | 175 kts | 62° |
| 2026-04-26 08:55 | 14.52386 | 121.04699 | 2557 ft | 187 kts | 60° |
| 2026-04-26 08:55 | 14.53068 | 121.05901 | 3144 ft | 201 kts | 60° |
| 2026-04-26 08:55 | 14.53807 | 121.07231 | 3619 ft | 227 kts | 61° |
| 2026-04-26 08:55 | 14.54625 | 121.08703 | 4126 ft | 249 kts | 61° |
| 2026-04-26 08:56 | 14.55517 | 121.10300 | 4851 ft | 263 kts | 60° |
| 2026-04-26 08:56 | 14.56061 | 121.11460 | 5373 ft | 267 kts | 74° |
| 2026-04-26 08:56 | 14.56235 | 121.12623 | 5858 ft | 272 kts | 91° |
| 2026-04-26 08:57 | 14.56231 | 121.12806 | 5940 ft | 272 kts | 94° |
| 2026-04-26 08:57 | 14.56225 | 121.12923 | 5995 ft | 273 kts | 96° |
| 2026-04-26 08:58 | 14.55894 | 121.14368 | 6640 ft | 278 kts | 112° |
| 2026-04-26 08:58 | 14.54836 | 121.15999 | 7473 ft | 281 kts | 134° |
| 2026-04-26 08:58 | 14.53433 | 121.17417 | 8302 ft | 287 kts | 135° |
| 2026-04-26 08:58 | 14.51986 | 121.18882 | 9230 ft | 291 kts | 135° |
| 2026-04-26 08:59 | 14.50539 | 121.20365 | 10144 ft | 295 kts | 135° |
| 2026-04-26 08:59 | 14.49050 | 121.21900 | 10740 ft | 312 kts | 135° |
| 2026-04-26 08:59 | 14.47223 | 121.23241 | 10906 ft | 339 kts | 158° |
| 2026-04-26 08:59 | 14.44817 | 121.23637 | 11160 ft | 364 kts | 186° |
| 2026-04-26 09:00 | 14.42397 | 121.22792 | 11852 ft | 375 kts | 213° |
| 2026-04-26 09:00 | 14.40469 | 121.20961 | 12754 ft | 381 kts | 230° |
| 2026-04-26 09:00 | 14.38792 | 121.18820 | 13680 ft | 385 kts | 232° |
| 2026-04-26 09:01 | 14.35341 | 121.14498 | 15411 ft | 392 kts | 230° |
| 2026-04-26 09:01 | 14.34160 | 121.13097 | 15981 ft | 395 kts | 229° |
| 2026-04-26 09:01 | 14.32325 | 121.10973 | 16834 ft | 398 kts | 229° |
| 2026-04-26 09:01 | 14.31052 | 121.09518 | 17442 ft | 399 kts | 228° |
| 2026-04-26 09:02 | 14.30607 | 121.09011 | 17659 ft | 400 kts | 228° |
| 2026-04-26 09:02 | 14.28089 | 121.06179 | 18501 ft | 410 kts | 225° |
| 2026-04-26 09:02 | 14.25872 | 121.04336 | 19223 ft | 412 kts | 215° |
| 2026-04-26 09:02 | 14.25596 | 121.04144 | 19339 ft | 411 kts | 215° |
| 2026-04-26 09:03 | 14.25575 | 121.04130 | 19343 ft | 411 kts | 215° |
| 2026-04-26 09:03 | 14.23175 | 121.02518 | 20126 ft | 414 kts | 214° |
| 2026-04-26 09:03 | 14.20743 | 121.00890 | 20886 ft | 416 kts | 214° |
| 2026-04-26 09:03 | 14.18300 | 120.99224 | 21601 ft | 421 kts | 215° |
| 2026-04-26 09:04 | 14.15858 | 120.97526 | 22239 ft | 426 kts | 216° |
| 2026-04-26 09:04 | 14.13391 | 120.95790 | 22844 ft | 433 kts | 216° |
| 2026-04-26 09:04 | 14.10896 | 120.94027 | 23414 ft | 439 kts | 216° |
| 2026-04-26 09:04 | 14.08359 | 120.92237 | 23887 ft | 445 kts | 216° |
| 2026-04-26 09:05 | 14.05654 | 120.90750 | 24265 ft | 451 kts | 200° |
| 2026-04-26 09:05 | 14.02546 | 120.90149 | 24734 ft | 459 kts | 184° |
| 2026-04-26 09:05 | 13.99352 | 120.90441 | 25305 ft | 461 kts | 169° |
| 2026-04-26 09:05 | 13.96221 | 120.91240 | 25810 ft | 466 kts | 167° |
| 2026-04-26 09:06 | 13.93101 | 120.92097 | 26304 ft | 470 kts | 166° |
| 2026-04-26 09:06 | 13.89904 | 120.92981 | 26807 ft | 473 kts | 166° |
| 2026-04-26 09:06 | 13.88504 | 120.93364 | 27047 ft | 474 kts | 167° |
| 2026-04-26 09:06 | 13.85346 | 120.94213 | 27588 ft | 477 kts | 167° |
| 2026-04-26 09:07 | 13.82126 | 120.95059 | 28099 ft | 479 kts | 167° |
| 2026-04-26 09:07 | 13.78875 | 120.95900 | 28585 ft | 483 kts | 167° |
| 2026-04-26 09:07 | 13.75600 | 120.96739 | 29064 ft | 486 kts | 167° |
| 2026-04-26 09:07 | 13.72310 | 120.97581 | 29520 ft | 489 kts | 167° |
| 2026-04-26 09:08 | 13.69009 | 120.98426 | 29948 ft | 492 kts | 167° |
| 2026-04-26 09:08 | 13.65677 | 120.99280 | 30322 ft | 494 kts | 167° |
| 2026-04-26 09:08 | 13.62333 | 121.00138 | 30686 ft | 496 kts | 167° |
| 2026-04-26 09:08 | 13.58980 | 121.00999 | 31135 ft | 495 kts | 167° |
| 2026-04-26 09:09 | 13.55647 | 121.01855 | 31712 ft | 491 kts | 167° |
| 2026-04-26 09:09 | 13.52339 | 121.02703 | 32316 ft | 487 kts | 168° |
| 2026-04-26 09:09 | 13.49032 | 121.03389 | 32862 ft | 482 kts | 176° |
| 2026-04-26 09:09 | 13.45701 | 121.03516 | 33375 ft | 478 kts | 182° |
| 2026-04-26 09:10 | 13.42367 | 121.03449 | 33900 ft | 476 kts | 183° |
| 2026-04-26 09:10 | 13.39121 | 121.03369 | 34322 ft | 474 kts | 183° |
| 2026-04-26 09:10 | 13.35828 | 121.03327 | 34725 ft | 474 kts | 182° |
| 2026-04-26 09:10 | 13.32587 | 121.03329 | 35094 ft | 474 kts | 181° |
| 2026-04-26 09:11 | 13.29289 | 121.03358 | 35385 ft | 475 kts | 181° |
| 2026-04-26 09:11 | 13.25986 | 121.03391 | 35791 ft | 474 kts | 182° |
| 2026-04-26 09:11 | 13.22709 | 121.03423 | 36280 ft | 470 kts | 181° |
| 2026-04-26 09:11 | 13.19437 | 121.03457 | 36636 ft | 470 kts | 181° |
| 2026-04-26 09:12 | 13.16154 | 121.03490 | 36827 ft | 473 kts | 181° |
| 2026-04-26 09:12 | 13.09530 | 121.03557 | 36888 ft | 475 kts | 181° |
| 2026-04-26 09:13 | 13.02982 | 121.03625 | 36888 ft | 468 kts | 181° |
| 2026-04-26 09:13 | 12.96465 | 121.03691 | 36887 ft | 467 kts | 181° |
| 2026-04-26 09:14 | 12.89993 | 121.03756 | 36890 ft | 468 kts | 181° |
| 2026-04-26 09:14 | 12.83464 | 121.03822 | 36890 ft | 469 kts | 181° |
| 2026-04-26 09:15 | 12.76920 | 121.03887 | 36888 ft | 470 kts | 181° |
| 2026-04-26 09:15 | 12.70365 | 121.03953 | 36878 ft | 472 kts | 181° |
| 2026-04-26 09:16 | 12.63844 | 121.04019 | 36878 ft | 472 kts | 181° |
| 2026-04-26 09:16 | 12.57265 | 121.04086 | 36870 ft | 472 kts | 181° |
| 2026-04-26 09:17 | 12.50690 | 121.04152 | 36862 ft | 472 kts | 181° |
| 2026-04-26 09:17 | 12.44103 | 121.04218 | 36860 ft | 472 kts | 181° |
| 2026-04-26 09:18 | 12.37620 | 121.04842 | 36849 ft | 476 kts | 164° |
| 2026-04-26 09:18 | 12.34553 | 121.06153 | 36859 ft | 479 kts | 153° |
| 2026-04-26 09:18 | 12.31799 | 121.08071 | 36847 ft | 483 kts | 140° |
| 2026-04-26 09:19 | 12.26912 | 121.12807 | 36855 ft | 484 kts | 138° |
| 2026-04-26 09:19 | 12.22056 | 121.17608 | 36852 ft | 485 kts | 139° |
| 2026-04-26 09:20 | 12.17160 | 121.22355 | 36853 ft | 485 kts | 139° |
| 2026-04-26 09:20 | 12.12228 | 121.27080 | 36851 ft | 485 kts | 139° |
| 2026-04-26 09:21 | 12.07307 | 121.31780 | 36846 ft | 485 kts | 139° |
| 2026-04-26 09:21 | 12.02343 | 121.36523 | 36848 ft | 485 kts | 139° |
| 2026-04-26 09:22 | 11.97445 | 121.41205 | 36848 ft | 485 kts | 139° |
| 2026-04-26 09:22 | 11.92513 | 121.45916 | 36850 ft | 485 kts | 139° |
| 2026-04-26 09:23 | 11.87579 | 121.50626 | 36845 ft | 485 kts | 139° |
| 2026-04-26 09:23 | 11.82654 | 121.55326 | 36846 ft | 484 kts | 139° |
| 2026-04-26 09:24 | 11.77737 | 121.60016 | 36847 ft | 484 kts | 139° |
| 2026-04-26 09:24 | 11.72823 | 121.64701 | 36843 ft | 483 kts | 139° |
| 2026-04-26 09:25 | 11.67870 | 121.69422 | 36843 ft | 483 kts | 139° |
| 2026-04-26 09:25 | 11.62986 | 121.74067 | 36842 ft | 483 kts | 139° |
| 2026-04-26 09:26 | 11.58069 | 121.78728 | 36845 ft | 483 kts | 139° |
| 2026-04-26 09:26 | 11.53136 | 121.83402 | 36842 ft | 482 kts | 139° |
| 2026-04-26 09:27 | 11.48232 | 121.88050 | 36843 ft | 482 kts | 139° |
| 2026-04-26 09:27 | 11.43345 | 121.92681 | 36847 ft | 482 kts | 139° |
| 2026-04-26 09:28 | 11.38424 | 121.97341 | 36853 ft | 482 kts | 139° |
| 2026-04-26 09:28 | 11.33504 | 122.01998 | 36858 ft | 482 kts | 139° |
| 2026-04-26 09:29 | 11.28590 | 122.06647 | 36866 ft | 482 kts | 139° |
| 2026-04-26 09:29 | 11.23672 | 122.11296 | 36859 ft | 482 kts | 139° |
| 2026-04-26 09:30 | 11.18764 | 122.15936 | 36864 ft | 482 kts | 139° |
| 2026-04-26 09:30 | 11.13868 | 122.20562 | 36874 ft | 482 kts | 139° |
| 2026-04-26 09:31 | 11.08945 | 122.25213 | 36874 ft | 482 kts | 139° |
| 2026-04-26 09:31 | 11.04032 | 122.29849 | 36871 ft | 482 kts | 139° |
| 2026-04-26 09:32 | 10.99116 | 122.34483 | 36864 ft | 481 kts | 139° |
| 2026-04-26 09:32 | 10.94202 | 122.39115 | 36866 ft | 481 kts | 139° |
| 2026-04-26 09:33 | 10.89287 | 122.43748 | 36866 ft | 481 kts | 139° |
| 2026-04-26 09:33 | 10.84253 | 122.48176 | 36867 ft | 478 kts | 146° |
| 2026-04-26 09:34 | 10.78602 | 122.51620 | 36848 ft | 475 kts | 156° |
| 2026-04-26 09:34 | 10.72582 | 122.54430 | 36854 ft | 475 kts | 157° |
| 2026-04-26 09:35 | 10.66534 | 122.57229 | 36845 ft | 475 kts | 157° |
| 2026-04-26 09:35 | 10.60558 | 122.60038 | 36845 ft | 475 kts | 156° |
| 2026-04-26 09:36 | 10.54564 | 122.62872 | 36839 ft | 475 kts | 156° |
| 2026-04-26 09:36 | 10.48567 | 122.65705 | 36840 ft | 475 kts | 156° |
| 2026-04-26 09:37 | 10.42560 | 122.68542 | 36838 ft | 475 kts | 156° |
| 2026-04-26 09:37 | 10.36555 | 122.71377 | 36841 ft | 476 kts | 156° |
| 2026-04-26 09:38 | 10.30559 | 122.74233 | 36840 ft | 476 kts | 156° |
| 2026-04-26 09:38 | 10.24547 | 122.77100 | 36842 ft | 477 kts | 156° |
| 2026-04-26 09:39 | 10.18564 | 122.79950 | 36839 ft | 477 kts | 156° |
| 2026-04-26 09:39 | 10.12545 | 122.82797 | 36845 ft | 477 kts | 156° |
| 2026-04-26 09:40 | 10.06515 | 122.85625 | 36845 ft | 477 kts | 156° |
| 2026-04-26 09:40 | 10.00485 | 122.88455 | 36851 ft | 477 kts | 156° |
| 2026-04-26 09:41 | 9.94459 | 122.91286 | 36844 ft | 477 kts | 156° |
| 2026-04-26 09:41 | 9.88441 | 122.94113 | 36850 ft | 476 kts | 156° |
| 2026-04-26 09:42 | 9.82464 | 122.96920 | 36843 ft | 475 kts | 156° |
| 2026-04-26 09:42 | 9.76470 | 122.99733 | 36850 ft | 475 kts | 156° |
| 2026-04-26 09:43 | 9.70481 | 123.02545 | 36847 ft | 475 kts | 156° |
| 2026-04-26 09:43 | 9.64471 | 123.05365 | 36836 ft | 475 kts | 156° |
| 2026-04-26 09:44 | 9.58453 | 123.08190 | 36843 ft | 475 kts | 156° |
| 2026-04-26 09:44 | 9.52457 | 123.11003 | 36838 ft | 475 kts | 156° |
| 2026-04-26 09:45 | 9.47477 | 123.13339 | 36835 ft | 476 kts | 156° |
| 2026-04-26 09:45 | 9.41466 | 123.16157 | 36829 ft | 476 kts | 156° |
| 2026-04-26 09:46 | 9.35436 | 123.18983 | 36840 ft | 476 kts | 156° |
| 2026-04-26 09:46 | 9.29418 | 123.21803 | 36841 ft | 477 kts | 156° |
| 2026-04-26 09:47 | 9.23387 | 123.24627 | 36830 ft | 478 kts | 156° |
| 2026-04-26 09:47 | 9.17343 | 123.27457 | 36835 ft | 478 kts | 156° |
| 2026-04-26 09:48 | 9.11293 | 123.30289 | 36837 ft | 478 kts | 156° |
| 2026-04-26 09:48 | 9.05264 | 123.33110 | 36843 ft | 478 kts | 156° |
| 2026-04-26 09:49 | 8.99226 | 123.35936 | 36853 ft | 478 kts | 156° |
| 2026-04-26 09:49 | 8.93197 | 123.38758 | 36857 ft | 477 kts | 155° |
| 2026-04-26 09:50 | 8.87204 | 123.41562 | 36858 ft | 477 kts | 155° |
| 2026-04-26 09:50 | 8.81183 | 123.44379 | 36857 ft | 476 kts | 155° |
| 2026-04-26 09:51 | 8.75153 | 123.47198 | 36862 ft | 476 kts | 155° |
| 2026-04-26 09:51 | 8.69137 | 123.50010 | 36866 ft | 476 kts | 155° |
| 2026-04-26 09:52 | 8.63173 | 123.52796 | 36869 ft | 475 kts | 155° |
| 2026-04-26 09:52 | 8.54159 | 123.57006 | 36878 ft | 475 kts | 155° |
| 2026-04-26 09:53 | 8.48147 | 123.59812 | 36876 ft | 475 kts | 155° |
| 2026-04-26 09:53 | 8.42147 | 123.62612 | 36879 ft | 475 kts | 155° |
| 2026-04-26 09:54 | 8.36132 | 123.65418 | 36878 ft | 475 kts | 155° |
| 2026-04-26 09:54 | 8.30140 | 123.68211 | 36877 ft | 474 kts | 155° |
| 2026-04-26 09:55 | 8.24142 | 123.71008 | 36879 ft | 474 kts | 155° |
| 2026-04-26 09:55 | 8.18154 | 123.73799 | 36885 ft | 474 kts | 155° |
| 2026-04-26 09:56 | 8.12210 | 123.76568 | 36884 ft | 474 kts | 155° |
| 2026-04-26 09:56 | 8.06207 | 123.79363 | 36880 ft | 475 kts | 155° |
| 2026-04-26 09:57 | 8.00203 | 123.82159 | 36884 ft | 475 kts | 155° |
| 2026-04-26 09:57 | 7.94229 | 123.84939 | 36879 ft | 475 kts | 155° |
| 2026-04-26 09:58 | 7.88265 | 123.87713 | 36566 ft | 470 kts | 155° |
| 2026-04-26 09:58 | 7.85274 | 123.89105 | 36196 ft | 465 kts | 155° |
| 2026-04-26 09:58 | 7.82383 | 123.90449 | 35750 ft | 461 kts | 155° |
| 2026-04-26 09:59 | 7.79488 | 123.91795 | 35265 ft | 458 kts | 155° |
| 2026-04-26 09:59 | 7.76599 | 123.93138 | 34779 ft | 455 kts | 155° |
| 2026-04-26 09:59 | 7.73740 | 123.94468 | 34282 ft | 453 kts | 155° |
| 2026-04-26 09:59 | 7.70862 | 123.95805 | 33776 ft | 451 kts | 155° |
| 2026-04-26 10:00 | 7.68021 | 123.97125 | 33222 ft | 449 kts | 155° |
| 2026-04-26 10:00 | 7.65187 | 123.98442 | 32717 ft | 446 kts | 155° |
| 2026-04-26 10:00 | 7.62379 | 123.99747 | 32226 ft | 443 kts | 155° |
| 2026-04-26 10:00 | 7.59587 | 124.01044 | 31744 ft | 440 kts | 155° |
| 2026-04-26 10:01 | 7.56810 | 124.02334 | 31267 ft | 437 kts | 155° |
| 2026-04-26 10:01 | 7.54059 | 124.03611 | 30797 ft | 435 kts | 155° |
| 2026-04-26 10:01 | 7.51324 | 124.04881 | 30317 ft | 433 kts | 155° |
| 2026-04-26 10:01 | 7.48630 | 124.06132 | 29823 ft | 431 kts | 155° |
| 2026-04-26 10:02 | 7.45914 | 124.07393 | 29281 ft | 428 kts | 155° |
| 2026-04-26 10:02 | 7.43205 | 124.08650 | 28765 ft | 425 kts | 155° |
| 2026-04-26 10:02 | 7.40539 | 124.09887 | 28288 ft | 421 kts | 155° |
| 2026-04-26 10:02 | 7.37889 | 124.11116 | 27808 ft | 418 kts | 154° |
| 2026-04-26 10:03 | 7.35261 | 124.12336 | 27338 ft | 415 kts | 154° |
| 2026-04-26 10:03 | 7.32646 | 124.13550 | 26890 ft | 412 kts | 154° |
| 2026-04-26 10:03 | 7.30042 | 124.14758 | 26403 ft | 409 kts | 154° |
| 2026-04-26 10:03 | 7.27461 | 124.15955 | 25951 ft | 407 kts | 154° |
| 2026-04-26 10:04 | 7.24909 | 124.17139 | 25491 ft | 405 kts | 154° |
| 2026-04-26 10:04 | 7.22334 | 124.18333 | 25021 ft | 403 kts | 154° |
| 2026-04-26 10:04 | 7.19794 | 124.19510 | 24561 ft | 402 kts | 154° |
| 2026-04-26 10:04 | 7.17308 | 124.20789 | 24105 ft | 400 kts | 148° |
| 2026-04-26 10:05 | 7.14989 | 124.22309 | 23663 ft | 398 kts | 142° |
| 2026-04-26 10:05 | 7.12819 | 124.24036 | 23164 ft | 396 kts | 140° |
| 2026-04-26 10:05 | 7.10707 | 124.25763 | 22684 ft | 394 kts | 140° |
| 2026-04-26 10:05 | 7.08566 | 124.27522 | 22191 ft | 392 kts | 140° |
| 2026-04-26 10:06 | 7.06456 | 124.29251 | 21754 ft | 389 kts | 140° |
| 2026-04-26 10:06 | 7.04361 | 124.30962 | 21314 ft | 386 kts | 140° |
| 2026-04-26 10:06 | 7.02301 | 124.32638 | 20875 ft | 384 kts | 140° |
| 2026-04-26 10:06 | 7.00231 | 124.34318 | 20428 ft | 382 kts | 140° |
| 2026-04-26 10:07 | 6.98167 | 124.35992 | 19998 ft | 379 kts | 140° |
| 2026-04-26 10:07 | 6.96117 | 124.37653 | 19563 ft | 378 kts | 140° |
| 2026-04-26 10:07 | 6.94076 | 124.39306 | 19113 ft | 376 kts | 140° |
| 2026-04-26 10:07 | 6.92038 | 124.40956 | 18692 ft | 375 kts | 140° |
| 2026-04-26 10:08 | 6.90001 | 124.42606 | 18233 ft | 374 kts | 140° |
| 2026-04-26 10:08 | 6.87980 | 124.44242 | 17745 ft | 373 kts | 140° |
| 2026-04-26 10:08 | 6.85963 | 124.45874 | 17285 ft | 370 kts | 140° |
| 2026-04-26 10:08 | 6.83974 | 124.47483 | 16839 ft | 367 kts | 140° |
| 2026-04-26 10:09 | 6.81986 | 124.49092 | 16409 ft | 365 kts | 140° |
| 2026-04-26 10:09 | 6.80039 | 124.50667 | 15989 ft | 362 kts | 140° |
| 2026-04-26 10:09 | 6.78086 | 124.52248 | 15559 ft | 359 kts | 140° |
| 2026-04-26 10:09 | 6.76142 | 124.53822 | 15143 ft | 357 kts | 140° |
| 2026-04-26 10:10 | 6.74215 | 124.55381 | 14720 ft | 354 kts | 140° |
| 2026-04-26 10:10 | 6.72318 | 124.56916 | 14301 ft | 352 kts | 140° |
| 2026-04-26 10:10 | 6.70392 | 124.58474 | 13877 ft | 351 kts | 140° |
| 2026-04-26 10:10 | 6.68495 | 124.60008 | 13430 ft | 349 kts | 140° |
| 2026-04-26 10:11 | 6.66602 | 124.61536 | 12987 ft | 347 kts | 140° |
| 2026-04-26 10:11 | 6.64708 | 124.63003 | 12571 ft | 344 kts | 141° |
| 2026-04-26 10:11 | 6.62795 | 124.64446 | 12160 ft | 341 kts | 141° |
| 2026-04-26 10:11 | 6.60892 | 124.65874 | 11758 ft | 338 kts | 141° |
| 2026-04-26 10:12 | 6.59028 | 124.67276 | 11485 ft | 332 kts | 141° |
| 2026-04-26 10:12 | 6.57189 | 124.68661 | 11117 ft | 329 kts | 141° |
| 2026-04-26 10:12 | 6.55393 | 124.70019 | 10759 ft | 326 kts | 141° |
| 2026-04-26 10:12 | 6.53577 | 124.71393 | 10436 ft | 323 kts | 141° |
| 2026-04-26 10:13 | 6.51831 | 124.72715 | 10303 ft | 313 kts | 141° |
| 2026-04-26 10:13 | 6.50098 | 124.74027 | 10147 ft | 303 kts | 141° |
| 2026-04-26 10:13 | 6.48457 | 124.75270 | 9977 ft | 296 kts | 141° |
| 2026-04-26 10:13 | 6.46805 | 124.76522 | 9641 ft | 296 kts | 141° |
| 2026-04-26 10:14 | 6.45154 | 124.77774 | 9274 ft | 294 kts | 141° |
| 2026-04-26 10:14 | 6.43519 | 124.79013 | 8932 ft | 293 kts | 141° |
| 2026-04-26 10:14 | 6.41894 | 124.80243 | 8654 ft | 289 kts | 141° |
| 2026-04-26 10:14 | 6.40340 | 124.81418 | 8542 ft | 275 kts | 141° |
| 2026-04-26 10:15 | 6.38824 | 124.82584 | 8510 ft | 275 kts | 137° |
| 2026-04-26 10:15 | 6.37591 | 124.83976 | 8489 ft | 257 kts | 124° |
| 2026-04-26 10:15 | 6.36606 | 124.85406 | 8281 ft | 249 kts | 122° |
| 2026-04-26 10:15 | 6.35671 | 124.86808 | 7994 ft | 244 kts | 122° |
| 2026-04-26 10:16 | 6.34711 | 124.88238 | 7698 ft | 246 kts | 122° |
| 2026-04-26 10:16 | 6.33749 | 124.89658 | 7397 ft | 246 kts | 122° |
| 2026-04-26 10:16 | 6.32781 | 124.91068 | 7086 ft | 245 kts | 123° |
| 2026-04-26 10:16 | 6.31805 | 124.92473 | 6804 ft | 244 kts | 123° |
| 2026-04-26 10:17 | 6.30830 | 124.93873 | 6498 ft | 244 kts | 123° |
| 2026-04-26 10:17 | 6.29855 | 124.95269 | 6183 ft | 244 kts | 123° |
| 2026-04-26 10:17 | 6.28880 | 124.96661 | 5858 ft | 239 kts | 123° |
| 2026-04-26 10:17 | 6.27940 | 124.98000 | 5557 ft | 228 kts | 122° |
| 2026-04-26 10:18 | 6.27248 | 124.99374 | 5269 ft | 214 kts | 106° |
| 2026-04-26 10:18 | 6.26831 | 125.00774 | 5022 ft | 207 kts | 104° |
| 2026-04-26 10:18 | 6.26430 | 125.02178 | 4802 ft | 211 kts | 105° |
| 2026-04-26 10:18 | 6.26023 | 125.03560 | 4628 ft | 206 kts | 105° |
| 2026-04-26 10:19 | 6.25612 | 125.04930 | 4439 ft | 201 kts | 105° |
| 2026-04-26 10:19 | 6.25198 | 125.06246 | 4272 ft | 194 kts | 113° |
| 2026-04-26 10:19 | 6.24674 | 125.07000 | 4043 ft | 195 kts | 141° |
| 2026-04-26 10:19 | 6.23415 | 125.07460 | 3761 ft | 195 kts | 170° |
| 2026-04-26 10:20 | 6.23410 | 125.07460 | 3759 ft | 195 kts | 170° |
| 2026-04-26 10:21 | 6.22861 | 125.07524 | 3640 ft | 195 kts | 171° |
| 2026-04-26 10:21 | 6.21502 | 125.07696 | 3333 ft | 198 kts | 171° |
| 2026-04-26 10:21 | 6.20140 | 125.07865 | 3049 ft | 196 kts | 171° |
| 2026-04-26 10:21 | 6.18812 | 125.08030 | 2786 ft | 193 kts | 171° |
| 2026-04-26 10:22 | 6.17483 | 125.08193 | 2534 ft | 191 kts | 172° |
| 2026-04-26 10:22 | 6.16186 | 125.08352 | 2317 ft | 181 kts | 172° |
| 2026-04-26 10:22 | 6.14982 | 125.08499 | 2052 ft | 167 kts | 172° |
| 2026-04-26 10:22 | 6.13879 | 125.08633 | 1809 ft | 151 kts | 173° |
| 2026-04-26 10:23 | 6.12848 | 125.08760 | 1681 ft | 149 kts | 173° |
| 2026-04-26 10:23 | 6.11801 | 125.08888 | 1475 ft | 152 kts | 173° |
| 2026-04-26 10:23 | 6.10758 | 125.09014 | 1286 ft | 149 kts | 173° |
| 2026-04-26 10:23 | 6.09735 | 125.09125 | 1064 ft | 146 kts | 172° |
| 2026-04-26 10:24 | 6.08736 | 125.09241 | 843 ft | 144 kts | 172° |
| 2026-04-26 10:24 | 6.07735 | 125.09365 | 659 ft | 145 kts | 172° |
| 2026-04-26 10:24 | 6.06757 | 125.09498 | 521 ft | 137 kts | 173° |
| 2026-04-26 10:24 | 6.05943 | 125.09602 | 519 ft | 92 kts | 173° |
| 2026-04-26 10:25 | 6.05486 | 125.09658 | 518 ft | 42 kts | 173° |
| 2026-04-26 10:25 | 6.05215 | 125.09691 | 518 ft | 31 kts | 173° |
| 2026-04-26 10:25 | 6.05006 | 125.09716 | 520 ft | 30 kts | 173° |
| 2026-04-26 10:25 | 6.04799 | 125.09741 | 520 ft | 30 kts | 173° |
| 2026-04-26 10:26 | 6.04595 | 125.09766 | 519 ft | 26 kts | 173° |
| 2026-04-26 10:26 | 6.04505 | 125.09808 | 520 ft | 10 kts | 104° |
| 2026-04-26 10:26 | 6.04510 | 125.09886 | 519 ft | 12 kts | 80° |
| 2026-04-26 10:26 | 6.04499 | 125.09944 | 519 ft | 6 kts | 155° |
| 2026-04-26 10:27 | 6.04440 | 125.09952 | 519 ft | 14 kts | 174° |
| 2026-04-26 10:27 | 6.04389 | 125.09923 | 519 ft | 4 kts | 263° |
| 2026-04-26 10:27 | 6.04388 | 125.09911 | 519 ft | 5 kts | 265° |
| 2026-04-26 10:28 | 6.04384 | 125.09862 | 519 ft | 9 kts | 265° |
| 2026-04-26 10:28 | 6.04403 | 125.09801 | 520 ft | 11 kts | 324° |
| 2026-04-26 10:29 | 6.04514 | 125.09777 | 520 ft | 18 kts | 353° |
| 2026-04-26 10:29 | 6.04599 | 125.09767 | 519 ft | 20 kts | 353° |
| 2026-04-26 10:29 | 6.04810 | 125.09741 | 520 ft | 24 kts | 353° |
| 2026-04-26 10:29 | 6.04979 | 125.09720 | 520 ft | 24 kts | 353° |
| 2026-04-26 10:30 | 6.05147 | 125.09699 | 518 ft | 24 kts | 353° |
| 2026-04-26 10:30 | 6.05308 | 125.09680 | 519 ft | 19 kts | 350° |
| 2026-04-26 10:30 | 6.05392 | 125.09698 | 519 ft | 9 kts | 60° |
| 2026-04-26 10:30 | 6.05404 | 125.09767 | 519 ft | 13 kts | 84° |
| 2026-04-26 10:31 | 6.05415 | 125.09866 | 519 ft | 12 kts | 83° |
| 2026-04-26 10:31 | 6.05451 | 125.09905 | 519 ft | 13 kts | 14° |
| 2026-04-26 10:31 | 6.05540 | 125.09902 | 519 ft | 13 kts | 353° |
| 2026-04-26 10:31 | 6.05602 | 125.09892 | 519 ft | 8 kts | 351° |
| 2026-04-26 10:32 | 6.05638 | 125.09927 | 519 ft | 6 kts | 72° |
| 2026-04-26 10:32 | 6.05643 | 125.09957 | 519 ft | 1 kts | 83° |